createdAt,value
2023-03-04T00:00:07.798Z,10.90
2023-03-04T00:03:04.701Z,14.30
2023-03-04T00:05:39.113Z,13.50
2023-03-04T00:08:13.588Z,10.60
2023-03-04T00:10:49.354Z,12.30
2023-03-04T00:13:24.424Z,12.10
2023-03-04T00:15:59.193Z,10.70
2023-03-04T00:18:33.518Z,14.10
2023-03-04T00:21:08.613Z,12.70
2023-03-04T00:23:43.839Z,14.20
2023-03-04T00:26:19.050Z,14.10
2023-03-04T00:28:54.026Z,12.40
2023-03-04T00:31:29.408Z,14.20
2023-03-04T00:34:03.800Z,16.00
2023-03-04T00:36:38.541Z,14.50
2023-03-04T00:39:13.103Z,11.70
2023-03-04T00:41:47.481Z,12.90
2023-03-04T00:44:22.116Z,11.80
2023-03-04T00:46:56.483Z,13.70
2023-03-04T00:49:30.654Z,12.40
2023-03-04T00:52:05.021Z,14.10
2023-03-04T00:54:39.362Z,13.00
2023-03-04T00:57:13.479Z,9.30
2023-03-04T00:59:47.926Z,10.10
2023-03-04T01:02:22.296Z,12.30
2023-03-04T01:04:56.744Z,12.00
2023-03-04T01:07:31.096Z,10.20
2023-03-04T01:10:05.955Z,13.20
2023-03-04T01:12:41.632Z,11.30
2023-03-04T01:15:18.807Z,12.90
2023-03-04T01:17:53.444Z,13.10
2023-03-04T01:20:28.043Z,12.20
2023-03-04T01:23:02.302Z,12.70
2023-03-04T01:25:36.781Z,11.80
2023-03-04T01:28:11.614Z,11.20
2023-03-04T01:30:45.980Z,13.60
2023-03-04T01:33:20.469Z,11.30
2023-03-04T01:35:54.978Z,10.90
2023-03-04T01:38:29.583Z,12.20
2023-03-04T01:41:04.255Z,14.40
2023-03-04T01:43:40.640Z,12.50
2023-03-04T01:46:17.666Z,10.40
2023-03-04T01:48:52.088Z,12.30
2023-03-04T01:51:26.512Z,12.60
2023-03-04T01:54:01.367Z,13.70
2023-03-04T01:56:41.343Z,13.40
2023-03-04T01:59:20.598Z,10.10
2023-03-04T02:01:58.080Z,11.60
2023-03-04T02:04:35.896Z,12.50
2023-03-04T02:07:11.563Z,12.60
2023-03-04T02:09:46.060Z,11.50
2023-03-04T02:12:20.836Z,13.40
2023-03-04T02:14:55.355Z,12.70
2023-03-04T02:17:33.369Z,10.80
2023-03-04T02:20:24.427Z,14.70
2023-03-04T02:23:10.907Z,14.40
2023-03-04T02:25:56.337Z,14.90
2023-03-04T02:28:30.747Z,11.90
2023-03-04T02:31:05.060Z,12.20
2023-03-04T02:33:39.458Z,15.40
2023-03-04T02:36:14.687Z,13.40
2023-03-04T02:38:50.544Z,15.60
2023-03-04T02:41:30.398Z,14.10
2023-03-04T02:44:16.494Z,13.60
2023-03-04T02:46:52.852Z,13.80
2023-03-04T02:49:30.435Z,13.70
2023-03-04T02:52:09.173Z,13.40
2023-03-04T02:54:44.140Z,14.30
2023-03-04T02:57:19.063Z,15.70
2023-03-04T02:59:56.216Z,15.00
2023-03-04T03:02:32.063Z,14.90
2023-03-04T03:05:07.377Z,13.70
2023-03-04T03:07:42.308Z,14.20
2023-03-04T03:10:17.615Z,16.00
2023-03-04T03:12:52.335Z,16.00
2023-03-04T03:15:27.153Z,14.00
2023-03-04T03:18:02.734Z,12.70
2023-03-04T03:20:37.096Z,16.30
2023-03-04T03:23:12.219Z,15.30
2023-03-04T03:25:46.649Z,13.30
2023-03-04T03:28:21.070Z,15.90
2023-03-04T03:30:55.440Z,16.10
2023-03-04T03:33:29.695Z,15.20
2023-03-04T03:36:04.481Z,17.80
2023-03-04T03:38:40.344Z,14.20
2023-03-04T03:41:14.694Z,18.70
2023-03-04T03:43:48.896Z,15.80
2023-03-04T03:46:23.249Z,12.60
2023-03-04T03:48:57.434Z,16.20
2023-03-04T03:51:32.083Z,15.10
2023-03-04T03:54:06.527Z,15.40
2023-03-04T03:56:41.044Z,12.70
2023-03-04T03:59:15.437Z,14.00
2023-03-04T04:01:49.810Z,15.70
2023-03-04T04:04:24.533Z,16.30
2023-03-04T04:06:59.025Z,12.20
2023-03-04T04:09:35.660Z,15.80
2023-03-04T04:12:12.685Z,13.00
2023-03-04T04:14:47.412Z,13.40
2023-03-04T04:17:21.754Z,13.40
2023-03-04T04:19:55.969Z,12.30
2023-03-04T04:22:30.555Z,12.70
2023-03-04T04:25:05.620Z,14.00
2023-03-04T04:27:39.989Z,13.10
2023-03-04T04:30:16.582Z,10.80
2023-03-04T04:32:50.840Z,11.80
2023-03-04T04:35:25.467Z,11.50
2023-03-04T04:38:00.270Z,10.40
2023-03-04T04:40:34.739Z,12.50
2023-03-04T04:43:09.298Z,10.30
2023-03-04T04:45:43.559Z,14.00
2023-03-04T04:48:18.039Z,14.20
2023-03-04T04:50:57.535Z,14.90
2023-03-04T04:53:31.846Z,13.10
2023-03-04T04:56:11.767Z,11.00
2023-03-04T04:58:47.168Z,13.40
2023-03-04T05:01:21.723Z,14.60
2023-03-04T05:03:56.141Z,14.80
2023-03-04T05:06:30.692Z,12.70
2023-03-04T05:09:05.082Z,14.30
2023-03-04T05:11:39.521Z,13.60
2023-03-04T05:14:13.917Z,15.90
2023-03-04T05:16:48.381Z,13.50
2023-03-04T05:19:23.220Z,15.70
2023-03-04T05:21:58.544Z,13.70
2023-03-04T05:24:32.817Z,15.30
2023-03-04T05:27:07.088Z,13.30
2023-03-04T05:29:42.847Z,13.40
2023-03-04T05:32:17.741Z,13.90
2023-03-04T05:34:53.718Z,14.10
2023-03-04T05:37:28.158Z,12.60
2023-03-04T05:40:03.285Z,12.70
2023-03-04T05:42:37.684Z,12.20
2023-03-04T05:45:15.176Z,13.10
2023-03-04T05:47:50.045Z,9.50
2023-03-04T05:50:25.945Z,10.50
2023-03-04T05:53:00.754Z,12.50
2023-03-04T05:55:36.110Z,12.20
2023-03-04T05:58:10.451Z,12.90
2023-03-04T06:00:45.265Z,8.50
2023-03-04T06:03:22.707Z,11.50
2023-03-04T06:05:58.489Z,11.00
2023-03-04T06:08:33.167Z,10.10
2023-03-04T06:11:08.184Z,12.30
2023-03-04T06:13:42.578Z,9.60
2023-03-04T06:16:16.977Z,12.00
2023-03-04T06:18:51.507Z,10.30
2023-03-04T06:21:26.153Z,10.50
2023-03-04T06:24:00.720Z,11.20
2023-03-04T06:26:35.064Z,11.20
2023-03-04T06:29:10.236Z,11.10
2023-03-04T06:31:44.877Z,9.80
2023-03-04T06:34:19.275Z,9.10
2023-03-04T06:36:53.862Z,10.00
2023-03-04T06:39:28.457Z,7.30
2023-03-04T06:42:02.795Z,8.60
2023-03-04T06:44:37.387Z,10.30
2023-03-04T06:47:12.548Z,8.40
2023-03-04T06:49:47.186Z,8.60
2023-03-04T06:52:21.554Z,9.10
2023-03-04T06:54:56.095Z,9.00
2023-03-04T06:57:30.730Z,8.50
2023-03-04T07:00:05.898Z,9.40
2023-03-04T07:02:40.481Z,10.00
2023-03-04T07:05:16.364Z,10.60
2023-03-04T07:07:50.865Z,9.10
2023-03-04T07:10:25.533Z,9.80
2023-03-04T07:12:59.942Z,9.10
2023-03-04T07:15:34.376Z,8.30
2023-03-04T07:18:08.918Z,8.70
2023-03-04T07:20:43.406Z,8.80
2023-03-04T07:23:17.916Z,8.80
2023-03-04T07:25:53.934Z,9.60
2023-03-04T07:28:28.405Z,9.20
2023-03-04T07:31:11.453Z,9.20
2023-03-04T07:33:45.750Z,6.70
2023-03-04T07:36:21.057Z,8.20
2023-03-04T07:38:56.766Z,8.60
2023-03-04T07:41:32.562Z,9.20
2023-03-04T07:44:08.005Z,9.80
2023-03-04T07:46:42.972Z,8.70
2023-03-04T07:49:18.774Z,8.40
2023-03-04T07:51:53.297Z,6.50
2023-03-04T07:54:27.950Z,8.00
2023-03-04T07:57:02.656Z,8.70
2023-03-04T07:59:37.284Z,7.50
2023-03-04T08:02:13.469Z,7.70
2023-03-04T08:04:47.911Z,8.70
2023-03-04T08:07:22.588Z,8.50
2023-03-04T08:09:57.179Z,8.40
2023-03-04T08:12:32.051Z,8.30
2023-03-04T08:15:07.217Z,7.60
2023-03-04T08:17:42.660Z,8.20
2023-03-04T08:20:18.917Z,6.10
2023-03-04T08:22:54.133Z,10.50
2023-03-04T08:25:28.622Z,21.00
2023-03-04T08:28:03.840Z,21.20
2023-03-04T08:30:39.031Z,65.00
2023-03-04T08:33:13.629Z,14.10
2023-03-04T08:35:48.049Z,25.90
2023-03-04T08:38:22.614Z,44.60
2023-03-04T08:41:01.534Z,34.90
2023-03-04T08:43:38.542Z,78.00
2023-03-04T08:46:13.378Z,20.80
2023-03-04T08:48:48.161Z,55.50
2023-03-04T08:51:24.054Z,22.50
2023-03-04T08:53:59.028Z,9.70
2023-03-04T08:56:33.905Z,11.60
2023-03-04T08:59:08.870Z,16.90
2023-03-04T09:01:43.222Z,12.50
2023-03-04T09:04:18.028Z,12.60
2023-03-04T09:06:54.071Z,11.40
2023-03-04T09:09:29.842Z,10.90
2023-03-04T09:12:05.015Z,10.00
2023-03-04T09:14:39.529Z,10.70
2023-03-04T09:17:14.400Z,10.60
2023-03-04T09:19:48.895Z,9.80
2023-03-04T09:22:23.549Z,9.80
2023-03-04T09:24:58.538Z,9.30
2023-03-04T09:27:33.154Z,9.30
2023-03-04T09:30:10.206Z,10.30
2023-03-04T09:32:44.585Z,9.30
2023-03-04T09:35:19.896Z,8.80
2023-03-04T09:37:54.884Z,9.60
2023-03-04T09:40:35.141Z,7.70
2023-03-04T09:43:19.756Z,7.80
2023-03-04T09:46:00.909Z,8.40
2023-03-04T09:48:46.532Z,7.30
2023-03-04T09:51:46.864Z,7.80
2023-03-04T09:54:33.952Z,8.60
2023-03-04T09:57:29.574Z,8.10
2023-03-04T10:00:20.338Z,6.50
2023-03-04T10:14:28.912Z,7.80
2023-03-04T10:17:13.646Z,8.00
2023-03-04T10:20:03.532Z,6.80
2023-03-04T10:22:46.357Z,8.30
2023-03-04T10:25:27.887Z,7.10
2023-03-04T10:28:07.508Z,7.00
2023-03-04T10:30:52.587Z,6.60
2023-03-04T10:33:31.626Z,7.60
2023-03-04T10:36:19.658Z,8.10
2023-03-04T10:39:01.838Z,6.10
2023-03-04T10:41:36.873Z,6.80
2023-03-04T10:44:20.958Z,6.80
2023-03-04T10:46:58.494Z,5.70
2023-03-04T10:49:33.413Z,6.20
2023-03-04T10:52:20.737Z,6.50
2023-03-04T10:54:58.892Z,6.30
2023-03-04T10:57:41.481Z,6.40
2023-03-04T11:00:32.378Z,5.10
2023-03-04T11:03:33.531Z,5.70
2023-03-04T11:06:20.628Z,6.00
2023-03-04T11:09:03.204Z,6.20
2023-03-04T11:11:46.176Z,5.80
2023-03-04T11:14:29.483Z,5.60
2023-03-04T11:17:19.009Z,5.80
2023-03-04T11:20:06.994Z,5.40
2023-03-04T11:22:43.899Z,5.10
2023-03-04T11:25:31.914Z,4.90
2023-03-04T11:28:16.430Z,5.30
2023-03-04T11:30:56.253Z,5.10
2023-03-04T11:33:43.423Z,4.30
2023-03-04T11:36:34.936Z,5.10
2023-03-04T11:39:21.871Z,5.10
2023-03-04T11:42:04.188Z,4.90
2023-03-04T11:44:39.515Z,5.50
2023-03-04T11:47:50.649Z,5.60
2023-03-04T11:50:45.824Z,5.00
2023-03-04T11:53:43.151Z,4.30
2023-03-04T11:56:32.876Z,4.90
2023-03-04T11:59:33.090Z,4.40
2023-03-04T12:02:23.686Z,5.10
2023-03-04T12:05:27.921Z,4.10
2023-03-04T12:08:27.820Z,4.20
2023-03-04T12:11:16.419Z,4.90
2023-03-04T12:14:12.592Z,4.80
2023-03-04T12:17:20.715Z,3.60
2023-03-04T12:20:28.814Z,4.60
2023-03-04T12:23:21.253Z,4.30
2023-03-04T12:26:06.267Z,4.10
2023-03-04T12:28:54.630Z,3.90
2023-03-04T12:31:40.890Z,3.90
2023-03-04T12:34:47.620Z,3.30
2023-03-04T12:37:46.018Z,4.50
2023-03-04T12:40:38.746Z,4.00
2023-03-04T12:43:49.579Z,3.90
2023-03-04T12:46:39.543Z,4.00
2023-03-04T12:49:47.647Z,3.10
2023-03-04T12:52:36.889Z,3.20
2023-03-04T12:55:17.720Z,4.00
2023-03-04T12:57:55.885Z,4.00
2023-03-04T13:00:50.146Z,3.50
2023-03-04T13:03:39.390Z,3.70
2023-03-04T13:06:30.396Z,3.40
2023-03-04T13:09:17.800Z,4.00
2023-03-04T13:12:04.784Z,4.00
2023-03-04T13:14:40.200Z,4.40
2023-03-04T13:17:47.551Z,3.30
2023-03-04T13:20:40.543Z,3.80
2023-03-04T13:23:32.063Z,4.40
2023-03-04T13:26:31.786Z,4.70
2023-03-04T13:29:38.401Z,4.70
2023-03-04T13:32:36.331Z,4.10
2023-03-04T13:36:00.287Z,3.50
2023-03-04T13:38:41.693Z,3.60
2023-03-04T13:41:25.009Z,3.90
2023-03-04T13:44:00.234Z,3.50
2023-03-04T13:46:48.341Z,3.00
2023-03-04T13:49:26.992Z,2.90
2023-03-04T13:52:21.761Z,3.40
2023-03-04T13:55:35.625Z,3.30
2023-03-04T13:58:22.883Z,3.00
2023-03-04T14:00:59.291Z,2.40
2023-03-04T14:03:36.650Z,4.10
2023-03-04T14:06:23.721Z,3.70
2023-03-04T14:08:59.380Z,3.50
2023-03-04T14:11:42.447Z,3.50
2023-03-04T14:14:21.226Z,3.90
2023-03-04T14:17:00.070Z,3.80
2023-03-04T14:19:39.631Z,3.90
2023-03-04T14:22:29.521Z,4.50
2023-03-04T14:25:09.354Z,4.10
2023-03-04T14:27:44.346Z,4.80
2023-03-04T14:30:44.477Z,4.70
2023-03-04T14:33:25.610Z,4.00
2023-03-04T14:36:03.885Z,3.20
2023-03-04T14:38:41.781Z,3.60
2023-03-04T14:41:24.451Z,3.80
2023-03-04T14:44:09.232Z,4.30
2023-03-04T14:47:04.633Z,4.40
2023-03-04T14:49:42.546Z,3.90
2023-03-04T14:52:47.004Z,3.10
2023-03-04T14:55:28.971Z,2.50
2023-03-04T14:58:23.777Z,2.10
2023-03-04T15:01:15.642Z,2.10
2023-03-04T15:04:01.707Z,3.20
2023-03-04T15:06:40.013Z,3.10
2023-03-04T15:09:26.144Z,2.60
2023-03-04T15:12:07.062Z,2.80
2023-03-04T15:14:54.061Z,3.10
2023-03-04T15:17:42.549Z,2.80
2023-03-04T15:20:32.913Z,2.80
2023-03-04T15:23:14.789Z,2.90
2023-03-04T15:25:54.668Z,2.60
2023-03-04T15:28:32.057Z,2.60
2023-03-04T15:31:08.036Z,2.70
2023-03-04T15:33:42.542Z,3.00
2023-03-04T15:36:20.033Z,2.70
2023-03-04T15:38:56.612Z,2.50
2023-03-04T15:41:31.671Z,2.40
2023-03-04T15:44:06.390Z,2.40
2023-03-04T15:46:40.963Z,3.00
2023-03-04T15:49:15.455Z,2.90
2023-03-04T15:51:50.520Z,2.70
2023-03-04T15:54:30.207Z,3.30
2023-03-04T15:57:06.397Z,3.10
2023-03-04T15:59:41.257Z,3.60
2023-03-04T16:02:23.928Z,3.30
2023-03-04T16:04:58.575Z,3.10
2023-03-04T16:07:36.404Z,3.10
2023-03-04T16:10:26.784Z,3.30
2023-03-04T16:13:01.779Z,3.90
2023-03-04T16:15:36.146Z,2.80
2023-03-04T16:18:10.818Z,3.00
2023-03-04T16:20:49.419Z,2.60
2023-03-04T16:23:26.290Z,2.80
2023-03-04T16:26:01.796Z,4.00
2023-03-04T16:28:36.254Z,3.60
2023-03-04T16:31:12.819Z,3.60
2023-03-04T16:33:47.845Z,3.50
2023-03-04T16:36:27.115Z,3.00
2023-03-04T16:39:05.697Z,2.80
2023-03-04T16:41:40.917Z,2.50
2023-03-04T16:44:16.211Z,2.80
2023-03-04T16:46:50.789Z,2.60
2023-03-04T16:49:25.422Z,3.50
2023-03-04T16:52:00.222Z,2.30
2023-03-04T16:54:37.917Z,2.60
2023-03-04T16:57:14.232Z,3.60
2023-03-04T16:59:49.188Z,3.70
2023-03-04T17:02:27.092Z,3.50
2023-03-04T17:05:01.480Z,3.10
2023-03-04T17:07:36.322Z,3.20
2023-03-04T17:10:13.092Z,3.00
2023-03-04T17:12:47.714Z,2.60
2023-03-04T17:15:22.502Z,2.70
2023-03-04T17:17:57.094Z,2.80
2023-03-04T17:20:31.535Z,2.80
2023-03-04T17:23:06.095Z,3.00
2023-03-04T17:25:40.510Z,3.70
2023-03-04T17:28:14.851Z,3.90
2023-03-04T17:30:49.260Z,4.10
2023-03-04T17:33:23.945Z,3.30
2023-03-04T17:35:58.520Z,2.70
2023-03-04T17:38:33.483Z,3.60
2023-03-04T17:41:13.371Z,2.70
2023-03-04T17:43:52.082Z,2.90
2023-03-04T17:46:28.741Z,2.90
2023-03-04T17:49:03.680Z,3.60
2023-03-04T17:51:41.182Z,4.00
2023-03-04T17:54:16.280Z,4.00
2023-03-04T17:56:50.757Z,4.00
2023-03-04T17:59:25.376Z,4.20
2023-03-04T18:02:00.075Z,4.40
2023-03-04T18:04:35.399Z,4.10
2023-03-04T18:07:09.790Z,4.60
2023-03-04T18:09:44.626Z,5.00
2023-03-04T18:12:19.121Z,4.40
2023-03-04T18:14:53.490Z,5.00
2023-03-04T18:17:28.334Z,6.10
2023-03-04T18:20:04.264Z,6.10
2023-03-04T18:22:39.105Z,5.80
2023-03-04T18:25:15.187Z,6.40
2023-03-04T18:27:49.677Z,6.10
2023-03-04T18:30:27.392Z,5.60
2023-03-04T18:33:02.956Z,3.90
2023-03-04T18:35:37.601Z,4.00
2023-03-04T18:38:13.062Z,4.10
2023-03-04T18:40:47.977Z,2.50
2023-03-04T18:43:22.170Z,2.40
2023-03-04T18:46:06.513Z,2.80
2023-03-04T18:48:46.881Z,2.40
2023-03-04T18:51:21.680Z,2.60
2023-03-04T18:53:55.963Z,2.60
2023-03-04T18:56:38.794Z,3.60
2023-03-04T18:59:20.794Z,2.90
2023-03-04T19:01:56.626Z,3.00
2023-03-04T19:04:32.941Z,3.60
2023-03-04T19:07:07.256Z,3.40
2023-03-04T19:09:41.667Z,3.20
2023-03-04T19:12:16.068Z,2.90
2023-03-04T19:14:50.829Z,2.80
2023-03-04T19:17:25.781Z,3.70
2023-03-04T19:20:00.201Z,2.90
2023-03-04T19:22:34.650Z,3.90
2023-03-04T19:25:11.918Z,4.00
2023-03-04T19:27:46.120Z,3.30
2023-03-04T19:30:21.432Z,3.70
2023-03-04T19:32:55.964Z,4.70
2023-03-04T19:35:32.524Z,4.10
2023-03-04T19:38:06.895Z,4.40
2023-03-04T19:40:46.880Z,2.20
2023-03-04T19:43:21.515Z,2.50
2023-03-04T19:45:59.121Z,2.30
2023-03-04T19:48:33.699Z,1.90
2023-03-04T19:51:17.017Z,2.20
2023-03-04T19:53:52.381Z,2.10
2023-03-04T19:56:28.087Z,2.30
2023-03-04T19:59:03.363Z,2.40
2023-03-04T20:01:38.977Z,2.50
2023-03-04T20:04:16.408Z,1.80
2023-03-04T20:06:56.960Z,2.30
2023-03-04T20:09:32.291Z,2.10
2023-03-04T20:12:07.355Z,2.50
2023-03-04T20:14:43.156Z,2.80
2023-03-04T20:17:17.869Z,3.40
2023-03-04T20:19:52.561Z,2.90
2023-03-04T20:22:27.111Z,2.70
2023-03-04T20:25:01.450Z,2.80
2023-03-04T20:27:35.822Z,2.50
2023-03-04T20:30:14.653Z,2.40
2023-03-04T20:32:50.686Z,2.10
2023-03-04T20:35:25.179Z,2.40
2023-03-04T20:37:59.480Z,2.30
2023-03-04T20:40:37.161Z,2.30
2023-03-04T20:43:11.611Z,2.20
2023-03-04T20:45:46.161Z,1.70
2023-03-04T20:48:20.386Z,2.10
2023-03-04T20:50:54.868Z,2.20
2023-03-04T20:53:29.054Z,1.70
2023-03-04T20:56:07.875Z,1.60
2023-03-04T20:58:42.232Z,1.40
2023-03-04T21:01:17.053Z,1.40
2023-03-04T21:03:52.647Z,1.50
2023-03-04T21:06:28.562Z,1.60
2023-03-04T21:09:09.471Z,1.30
2023-03-04T21:11:44.265Z,1.60
2023-03-04T21:14:23.061Z,1.70
2023-03-04T21:17:00.402Z,2.10
2023-03-04T21:19:37.904Z,2.50
2023-03-04T21:22:14.764Z,2.80
2023-03-04T21:24:50.324Z,2.80
2023-03-04T21:27:24.655Z,2.30
2023-03-04T21:29:58.894Z,2.20
2023-03-04T21:32:33.348Z,2.10
2023-03-04T21:35:13.708Z,1.70
2023-03-04T21:37:48.774Z,2.10
2023-03-04T21:40:23.659Z,2.10
2023-03-04T21:42:58.235Z,2.80
2023-03-04T21:45:33.394Z,3.30
2023-03-04T21:48:08.540Z,3.40
2023-03-04T21:50:43.355Z,3.40
2023-03-04T21:53:21.684Z,2.80
2023-03-04T21:55:55.905Z,3.80
2023-03-04T21:58:30.528Z,2.60
2023-03-04T22:01:12.204Z,3.50
2023-03-04T22:03:48.718Z,3.80
2023-03-04T22:06:26.706Z,3.10
2023-03-04T22:09:01.427Z,2.80
2023-03-04T22:11:36.383Z,2.30
2023-03-04T22:14:11.921Z,2.30
2023-03-04T22:16:55.367Z,2.40
2023-03-04T22:19:34.631Z,1.70
2023-03-04T22:22:09.846Z,2.30
2023-03-04T22:24:43.948Z,1.80
2023-03-04T22:27:18.284Z,1.60
2023-03-04T22:29:52.483Z,1.50
2023-03-04T22:32:26.892Z,2.30
2023-03-04T22:35:01.947Z,2.40
2023-03-04T22:37:36.169Z,2.40
2023-03-04T22:40:15.710Z,1.90
2023-03-04T22:42:51.130Z,2.40
2023-03-04T22:45:28.187Z,2.60
2023-03-04T22:48:02.662Z,2.50
2023-03-04T22:50:37.884Z,2.40
2023-03-04T22:53:12.049Z,3.00
2023-03-04T22:55:46.288Z,2.90
2023-03-04T22:58:20.317Z,2.70
2023-03-04T23:00:54.607Z,2.10
2023-03-04T23:03:30.355Z,2.40
2023-03-04T23:06:13.664Z,2.30
2023-03-04T23:08:50.994Z,2.60
2023-03-04T23:11:28.055Z,2.60
2023-03-04T23:14:06.516Z,3.90
2023-03-04T23:16:44.399Z,3.10
2023-03-04T23:19:20.405Z,2.80
2023-03-04T23:21:54.574Z,3.10
2023-03-04T23:24:29.592Z,2.70
2023-03-04T23:27:03.726Z,2.70
2023-03-04T23:29:38.069Z,3.30
2023-03-04T23:32:12.798Z,3.20
2023-03-04T23:34:53.070Z,2.30
2023-03-04T23:37:28.089Z,2.60
2023-03-04T23:40:02.322Z,2.70
2023-03-04T23:42:36.563Z,2.90
2023-03-04T23:45:14.179Z,3.00
2023-03-04T23:47:48.419Z,2.50
2023-03-04T23:50:23.174Z,2.70
2023-03-04T23:52:57.262Z,2.30
2023-03-04T23:55:34.282Z,2.30
2023-03-04T23:58:08.389Z,2.80
